Time,TemperatureF,DewpointF,PressureIn,WindDirection,WindDirectionDegrees,WindSpeedMPH,WindSpeedGustMPH,Humidity,HourlyPrecipIn,Conditions,Clouds,dailyrainin,SoftwareType,DateUTC
2013-03-03 00:00:00,26.8,22.0,29.86,NW,315,2.0,4.0,82,0.00,,,0.00,WUHU21623XXSP,2013-03-03 05:00:00,
2013-03-03 00:01:00,26.8,22.0,29.86,NW,315,2.0,4.0,82,0.00,,,0.00,WUHU21623XXSP,2013-03-03 05:01:00,
2013-03-03 00:06:00,26.6,21.8,29.86,NW,315,2.5,3.4,82,0.00,,,0.00,WUHU21623XXSP,2013-03-03 05:06:00,
2013-03-03 00:11:00,26.6,21.8,29.86,NW,315,1.1,2.5,82,0.00,,,0.00,WUHU21623XXSP,2013-03-03 05:11:00,
2013-03-03 00:16:00,26.6,21.8,29.86,NW,315,2.2,3.6,82,0.00,,,0.00,WUHU21623XXSP,2013-03-03 05:16:00,
2013-03-03 00:21:00,26.6,21.8,29.86,NW,315,2.2,3.6,82,0.00,,,0.00,WUHU21623XXSP,2013-03-03 05:21:00,
2013-03-03 00:26:00,26.6,21.8,29.86,NW,315,4.5,4.5,82,0.00,,,0.00,WUHU21623XXSP,2013-03-03 05:26:00,
2013-03-03 00:31:00,26.6,21.8,29.86,NW,315,4.7,4.7,82,0.00,,,0.00,WUHU21623XXSP,2013-03-03 05:31:00,
2013-03-03 00:36:00,26.6,21.8,29.86,NW,315,2.9,5.8,82,0.00,,,0.00,WUHU21623XXSP,2013-03-03 05:36:00,
2013-03-03 00:41:00,26.6,21.8,29.86,NW,315,3.1,5.8,82,0.00,,,0.00,WUHU21623XXSP,2013-03-03 05:41:00,
2013-03-03 00:46:00,26.6,21.8,29.86,NW,315,2.9,3.1,82,0.00,,,0.00,WUHU21623XXSP,2013-03-03 05:46:00,
2013-03-03 00:51:00,26.6,21.8,29.86,NW,315,2.9,3.1,82,0.00,,,0.00,WUHU21623XXSP,2013-03-03 05:51:00,
2013-03-03 00:56:00,26.4,21.6,29.86,NW,315,6.5,6.5,82,0.00,,,0.00,WUHU21623XXSP,2013-03-03 05:56:00,
2013-03-03 01:01:00,26.4,21.6,29.86,NW,315,6.9,6.9,82,0.00,,,0.00,WUHU21623XXSP,2013-03-03 06:01:00,
2013-03-03 01:06:00,26.4,21.3,29.86,NW,315,3.4,6.9,81,0.00,,,0.00,WUHU21623XXSP,2013-03-03 06:06:00,
2013-03-03 01:11:00,26.4,21.3,29.86,NW,315,2.5,6.9,81,0.00,,,0.00,WUHU21623XXSP,2013-03-03 06:11:00,
2013-03-03 01:16:00,26.4,21.3,29.86,NW,315,5.8,5.8,81,0.00,,,0.00,WUHU21623XXSP,2013-03-03 06:16:00,
2013-03-03 01:21:00,26.4,21.3,29.86,NW,315,3.1,5.8,81,0.00,,,0.00,WUHU21623XXSP,2013-03-03 06:21:00,
2013-03-03 01:26:00,26.4,21.6,29.86,NW,315,2.2,3.1,82,0.00,,,0.00,WUHU21623XXSP,2013-03-03 06:26:00,
2013-03-03 01:31:00,26.4,21.3,29.86,NW,315,1.8,3.1,82,0.00,,,0.00,WUHU21623XXSP,2013-03-03 06:31:00,
2013-03-03 01:36:00,26.4,21.3,29.86,NW,315,1.8,2.2,81,0.00,,,0.00,WUHU21623XXSP,2013-03-03 06:36:00,
2013-03-03 01:41:00,26.4,21.6,29.86,NW,315,4.0,4.0,82,0.00,,,0.00,WUHU21623XXSP,2013-03-03 06:41:00,
2013-03-03 01:46:00,26.4,21.3,29.87,NW,315,3.6,4.0,81,0.00,,,0.00,WUHU21623XXSP,2013-03-03 06:46:00,
2013-03-03 01:51:00,26.4,21.3,29.86,NW,315,2.5,4.5,81,0.00,,,0.00,WUHU21623XXSP,2013-03-03 06:51:00,
2013-03-03 01:56:00,26.4,21.3,29.86,NW,315,0.0,4.5,81,0.00,,,0.00,WUHU21623XXSP,2013-03-03 06:56:00,
2013-03-03 02:01:00,26.4,21.3,29.86,NNW,337,4.3,4.3,81,0.00,,,0.00,WUHU21623XXSP,2013-03-03 07:01:00,
2013-03-03 02:06:00,26.4,21.3,29.86,WNW,292,2.7,5.1,81,0.00,,,0.00,WUHU21623XXSP,2013-03-03 07:06:00,
2013-03-03 02:11:00,26.4,21.3,29.86,NNW,337,3.8,5.1,81,0.00,,,0.00,WUHU21623XXSP,2013-03-03 07:11:00,
2013-03-03 02:16:00,26.2,21.1,29.86,NW,315,2.2,3.8,81,0.00,,,0.00,WUHU21623XXSP,2013-03-03 07:16:00,
2013-03-03 02:21:00,26.4,21.3,29.86,NW,315,1.6,2.7,81,0.00,,,0.00,WUHU21623XXSP,2013-03-03 07:21:00,
2013-03-03 02:26:00,26.2,21.1,29.86,NW,315,3.1,3.1,81,0.00,,,0.00,WUHU21623XXSP,2013-03-03 07:26:00,
2013-03-03 02:31:00,26.2,21.1,29.86,NW,315,3.1,3.1,81,0.00,,,0.00,WUHU21623XXSP,2013-03-03 07:31:00,
2013-03-03 02:36:00,26.2,21.1,29.86,NW,315,3.1,3.1,81,0.00,,,0.00,WUHU21623XXSP,2013-03-03 07:36:00,
2013-03-03 02:41:00,26.2,21.1,29.86,NW,315,4.0,4.0,81,0.00,,,0.00,WUHU21623XXSP,2013-03-03 07:41:00,
2013-03-03 02:46:00,26.2,21.1,29.85,WNW,292,2.0,4.0,81,0.00,,,0.00,WUHU21623XXSP,2013-03-03 07:46:00,
2013-03-03 02:51:00,26.2,21.1,29.85,NW,315,2.7,4.0,81,0.00,,,0.00,WUHU21623XXSP,2013-03-03 07:51:00,
2013-03-03 02:56:00,26.2,21.1,29.85,NW,315,2.9,4.0,81,0.00,,,0.00,WUHU21623XXSP,2013-03-03 07:56:00,
2013-03-03 03:01:00,26.2,21.1,29.85,WSW,247,0.0,2.9,81,0.00,,,0.00,WUHU21623XXSP,2013-03-03 08:01:00,
2013-03-03 03:06:00,26.2,21.1,29.85,NW,315,1.6,3.8,81,0.00,,,0.00,WUHU21623XXSP,2013-03-03 08:06:00,
2013-03-03 03:11:00,26.2,21.1,29.85,NW,315,1.6,3.8,81,0.00,,,0.00,WUHU21623XXSP,2013-03-03 08:11:00,
2013-03-03 03:16:00,26.1,21.0,29.85,NW,315,4.3,4.9,81,0.00,,,0.00,WUHU21623XXSP,2013-03-03 08:16:00,
2013-03-03 03:21:00,25.9,20.8,29.85,NW,315,4.7,4.9,81,0.00,,,0.00,WUHU21623XXSP,2013-03-03 08:21:00,
2013-03-03 03:26:00,25.9,20.8,29.85,NW,315,4.3,4.7,81,0.00,,,0.00,WUHU21623XXSP,2013-03-03 08:26:00,
2013-03-03 03:31:00,25.7,20.7,29.85,NW,315,3.8,4.3,81,0.00,,,0.00,WUHU21623XXSP,2013-03-03 08:31:00,
2013-03-03 03:36:00,25.7,20.7,29.84,NW,315,3.8,3.8,81,0.00,,,0.00,WUHU21623XXSP,2013-03-03 08:36:00,
2013-03-03 03:41:00,25.5,20.8,29.85,NW,315,1.6,3.8,82,0.00,,,0.00,WUHU21623XXSP,2013-03-03 08:41:00,
2013-03-03 03:46:00,25.5,20.8,29.85,NW,315,0.0,1.6,82,0.00,,,0.00,WUHU21623XXSP,2013-03-03 08:46:00,
2013-03-03 03:51:00,25.7,20.8,29.85,NW,315,1.1,1.6,82,0.00,,,0.00,WUHU21623XXSP,2013-03-03 08:51:00,
2013-03-03 03:56:00,25.5,20.8,29.85,NW,315,2.9,2.9,82,0.00,,,0.00,WUHU21623XXSP,2013-03-03 08:56:00,
2013-03-03 04:01:00,25.7,20.9,29.85,NW,315,0.0,3.4,82,0.00,,,0.00,WUHU21623XXSP,2013-03-03 09:01:00,
2013-03-03 04:06:00,25.7,20.9,29.85,NW,315,2.5,3.4,82,0.00,,,0.00,WUHU21623XXSP,2013-03-03 09:06:00,
2013-03-03 04:11:00,25.7,20.9,29.85,NW,315,4.7,4.7,82,0.00,,,0.00,WUHU21623XXSP,2013-03-03 09:11:00,
2013-03-03 04:16:00,25.7,20.9,29.85,NW,315,4.5,4.7,82,0.00,,,0.00,WUHU21623XXSP,2013-03-03 09:16:00,
2013-03-03 04:21:00,25.7,20.9,29.85,NW,315,4.3,4.5,82,0.00,,,0.00,WUHU21623XXSP,2013-03-03 09:21:00,
2013-03-03 04:26:00,25.5,20.8,29.86,NW,315,4.9,4.9,82,0.00,,,0.00,WUHU21623XXSP,2013-03-03 09:26:00,
2013-03-03 04:31:00,25.5,20.8,29.86,NW,315,7.6,7.6,82,0.00,,,0.00,WUHU21623XXSP,2013-03-03 09:31:00,
2013-03-03 04:36:00,25.5,20.8,29.86,NW,315,7.4,7.6,82,0.00,,,0.00,WUHU21623XXSP,2013-03-03 09:36:00,
2013-03-03 04:41:00,25.3,20.8,29.86,NW,315,7.4,7.4,82,0.00,,,0.00,WUHU21623XXSP,2013-03-03 09:41:00,
2013-03-03 04:46:00,25.3,20.3,29.86,NW,315,5.6,7.4,81,0.00,,,0.00,WUHU21623XXSP,2013-03-03 09:46:00,
2013-03-03 04:51:00,25.2,20.2,29.85,NW,315,3.6,5.6,81,0.00,,,0.00,WUHU21623XXSP,2013-03-03 09:51:00,
2013-03-03 04:56:00,25.2,20.2,29.86,NW,315,2.2,6.3,81,0.00,,,0.00,WUHU21623XXSP,2013-03-03 09:56:00,
2013-03-03 05:01:00,25.2,20.2,29.85,NW,315,2.5,6.3,81,0.00,,,0.00,WUHU21623XXSP,2013-03-03 10:01:00,
2013-03-03 05:06:00,25.2,20.2,29.86,NW,315,2.7,4.7,81,0.00,,,0.00,WUHU21623XXSP,2013-03-03 10:06:00,
2013-03-03 05:11:00,25.2,20.2,29.86,NW,315,6.9,6.9,81,0.00,,,0.00,WUHU21623XXSP,2013-03-03 10:11:00,
2013-03-03 05:16:00,25.0,19.7,29.86,NW,315,4.3,6.9,80,0.00,,,0.00,WUHU21623XXSP,2013-03-03 10:16:00,
2013-03-03 05:21:00,25.0,19.7,29.87,NW,315,4.3,6.3,80,0.00,,,0.00,WUHU21623XXSP,2013-03-03 10:21:00,
2013-03-03 05:26:00,25.0,19.7,29.87,NW,315,2.0,4.3,80,0.00,,,0.00,WUHU21623XXSP,2013-03-03 10:26:00,
2013-03-03 05:31:00,25.0,19.7,29.87,West,270,2.2,4.9,80,0.00,,,0.00,WUHU21623XXSP,2013-03-03 10:31:00,
2013-03-03 05:36:00,25.0,19.7,29.87,West,270,2.2,4.9,80,0.00,,,0.00,WUHU21623XXSP,2013-03-03 10:36:00,
2013-03-03 05:41:00,24.6,19.4,29.87,NW,315,4.7,4.7,80,0.00,,,0.00,WUHU21623XXSP,2013-03-03 10:41:00,
2013-03-03 05:46:00,24.6,19.4,29.87,NW,315,3.6,4.7,80,0.00,,,0.00,WUHU21623XXSP,2013-03-03 10:46:00,
2013-03-03 05:51:00,24.6,19.4,29.87,NW,315,3.6,3.6,80,0.00,,,0.00,WUHU21623XXSP,2013-03-03 10:51:00,
2013-03-03 05:56:00,24.6,19.4,29.87,NW,315,8.3,8.3,80,0.00,,,0.00,WUHU21623XXSP,2013-03-03 10:56:00,
2013-03-03 06:01:00,24.6,19.4,29.87,NW,315,5.6,8.3,80,0.00,,,0.00,WUHU21623XXSP,2013-03-03 11:01:00,
2013-03-03 06:06:00,24.6,19.4,29.87,NW,315,3.4,5.6,80,0.00,,,0.00,WUHU21623XXSP,2013-03-03 11:06:00,
2013-03-03 06:11:00,24.6,19.4,29.87,WNW,292,1.3,5.6,80,0.00,,,0.00,WUHU21623XXSP,2013-03-03 11:11:00,
2013-03-03 06:16:00,24.6,19.4,29.87,NW,315,1.8,2.5,80,0.00,,,0.00,WUHU21623XXSP,2013-03-03 11:16:00,
2013-03-03 06:21:00,24.6,19.4,29.87,WNW,292,2.2,2.2,80,0.00,,,0.00,WUHU21623XXSP,2013-03-03 11:21:00,
2013-03-03 06:26:00,24.4,19.2,29.87,NW,315,5.1,5.1,80,0.00,,,0.00,WUHU21623XXSP,2013-03-03 11:26:00,
2013-03-03 06:31:00,24.4,19.2,29.88,NW,315,1.3,5.1,80,0.00,,,0.00,WUHU21623XXSP,2013-03-03 11:31:00,
2013-03-03 06:36:00,24.6,19.4,29.87,NW,315,3.1,3.1,80,0.00,,,0.00,WUHU21623XXSP,2013-03-03 11:36:00,
2013-03-03 06:41:00,24.6,19.4,29.88,NW,315,3.1,3.1,80,0.00,,,0.00,WUHU21623XXSP,2013-03-03 11:41:00,
2013-03-03 06:46:00,24.6,19.4,29.88,NW,315,2.2,3.1,80,0.00,,,0.00,WUHU21623XXSP,2013-03-03 11:46:00,
2013-03-03 06:51:00,24.6,19.4,29.88,NW,315,2.0,2.2,80,0.00,,,0.00,WUHU21623XXSP,2013-03-03 11:51:00,
2013-03-03 06:56:00,24.6,19.1,29.88,WNW,292,2.0,4.9,79,0.00,,,0.00,WUHU21623XXSP,2013-03-03 11:56:00,
2013-03-03 07:01:00,24.4,19.1,29.88,NW,315,3.1,4.9,79,0.00,,,0.00,WUHU21623XXSP,2013-03-03 12:01:00,
2013-03-03 07:06:00,24.6,19.1,29.88,NW,315,3.6,3.6,79,0.00,,,0.00,WUHU21623XXSP,2013-03-03 12:06:00,
2013-03-03 07:11:00,24.6,19.1,29.88,NW,315,3.4,3.6,79,0.00,,,0.00,WUHU21623XXSP,2013-03-03 12:11:00,
2013-03-03 07:16:00,24.6,19.1,29.88,NW,315,1.8,3.4,79,0.00,,,0.00,WUHU21623XXSP,2013-03-03 12:16:00,
2013-03-03 07:21:00,24.6,18.8,29.88,NW,315,4.0,4.0,78,0.00,,,0.00,WUHU21623XXSP,2013-03-03 12:21:00,
2013-03-03 07:26:00,24.6,18.8,29.88,WNW,292,0.0,4.0,78,0.00,,,0.00,WUHU21623XXSP,2013-03-03 12:26:00,
2013-03-03 07:31:00,24.6,18.8,29.89,WSW,247,2.5,4.0,78,0.00,,,0.00,WUHU21623XXSP,2013-03-03 12:31:00,
2013-03-03 07:36:00,24.6,18.8,29.88,WSW,247,1.6,3.6,78,0.00,,,0.00,WUHU21623XXSP,2013-03-03 12:36:00,
2013-03-03 07:41:00,25.0,19.1,29.88,NW,315,1.6,3.1,78,0.00,,,0.00,WUHU21623XXSP,2013-03-03 12:41:00,
2013-03-03 07:46:00,25.0,19.1,29.88,NW,315,3.6,3.6,78,0.00,,,0.00,WUHU21623XXSP,2013-03-03 12:46:00,
2013-03-03 07:51:00,25.0,19.1,29.89,SSW,202,2.0,6.5,77,0.00,,,0.00,WUHU21623XXSP,2013-03-03 12:51:00,
2013-03-03 07:56:00,25.0,18.8,29.89,NW,315,4.0,6.5,77,0.00,,,0.00,WUHU21623XXSP,2013-03-03 12:56:00,
2013-03-03 08:01:00,25.2,18.9,29.89,NW,315,3.6,5.6,77,0.00,,,0.00,WUHU21623XXSP,2013-03-03 13:01:00,
2013-03-03 08:06:00,25.2,18.9,29.89,NW,315,2.0,5.6,77,0.00,,,0.00,WUHU21623XXSP,2013-03-03 13:06:00,
2013-03-03 08:11:00,25.3,19.1,29.89,NW,315,2.2,3.6,77,0.00,,,0.00,WUHU21623XXSP,2013-03-03 13:11:00,
2013-03-03 08:16:00,25.5,18.9,29.89,WNW,292,0.9,2.2,76,0.00,,,0.00,WUHU21623XXSP,2013-03-03 13:16:00,
2013-03-03 08:21:00,25.5,18.9,29.89,NW,315,4.9,4.9,76,0.00,,,0.00,WUHU21623XXSP,2013-03-03 13:21:00,
2013-03-03 08:26:00,25.5,18.9,29.89,NW,315,3.6,4.9,76,0.00,,,0.00,WUHU21623XXSP,2013-03-03 13:26:00,
2013-03-03 08:31:00,25.9,19.3,29.89,WNW,292,3.1,5.4,76,0.00,,,0.00,WUHU21623XXSP,2013-03-03 13:31:00,
2013-03-03 08:36:00,26.2,19.6,29.89,NW,315,3.8,5.4,76,0.00,,,0.00,WUHU21623XXSP,2013-03-03 13:36:00,
2013-03-03 08:41:00,26.2,19.6,29.89,WNW,292,5.8,5.8,76,0.00,,,0.00,WUHU21623XXSP,2013-03-03 13:41:00,
2013-03-03 08:46:00,26.2,19.3,29.88,NW,315,8.1,8.1,75,0.00,,,0.00,WUHU21623XXSP,2013-03-03 13:46:00,
2013-03-03 08:51:00,26.4,19.0,29.88,NW,315,5.4,8.1,74,0.00,,,0.00,WUHU21623XXSP,2013-03-03 13:51:00,
2013-03-03 08:56:00,26.4,19.2,29.88,NNW,337,6.9,8.1,74,0.00,,,0.00,WUHU21623XXSP,2013-03-03 13:56:00,
2013-03-03 09:01:00,26.4,18.9,29.88,NW,315,3.8,9.2,73,0.00,,,0.00,WUHU21623XXSP,2013-03-03 14:01:00,
2013-03-03 09:06:00,26.4,18.9,29.88,NW,315,8.3,9.2,73,0.00,,,0.00,WUHU21623XXSP,2013-03-03 14:06:00,
2013-03-03 09:11:00,26.4,18.9,29.88,NW,315,9.2,9.2,73,0.00,,,0.00,WUHU21623XXSP,2013-03-03 14:11:00,
2013-03-03 09:16:00,26.4,18.9,29.89,NW,315,8.1,9.2,73,0.00,,,0.00,WUHU21623XXSP,2013-03-03 14:16:00,
2013-03-03 09:21:00,26.4,18.9,29.89,NNW,337,8.5,9.2,73,0.00,,,0.00,WUHU21623XXSP,2013-03-03 14:21:00,
2013-03-03 09:26:00,26.2,18.4,29.89,North,0,9.2,9.2,72,0.00,,,0.00,WUHU21623XXSP,2013-03-03 14:26:00,
2013-03-03 09:31:00,26.2,18.4,29.89,North,0,9.2,9.2,73,0.00,,,0.00,WUHU21623XXSP,2013-03-03 14:31:00,
2013-03-03 09:36:00,26.4,18.9,29.89,NW,315,4.3,9.2,73,0.00,,,0.00,WUHU21623XXSP,2013-03-03 14:36:00,
2013-03-03 09:41:00,26.8,18.9,29.89,North,0,7.8,9.2,73,0.00,,,0.00,WUHU21623XXSP,2013-03-03 14:41:00,
2013-03-03 09:46:00,26.4,18.9,29.89,WNW,292,6.7,7.8,73,0.00,,,0.00,WUHU21623XXSP,2013-03-03 14:46:00,
2013-03-03 09:51:00,26.4,18.9,29.89,NW,315,10.7,10.7,73,0.00,,,0.00,WUHU21623XXSP,2013-03-03 14:51:00,
2013-03-03 09:56:00,26.4,18.9,29.89,NNW,337,6.9,10.7,73,0.00,,,0.00,WUHU21623XXSP,2013-03-03 14:56:00,
2013-03-03 10:01:00,26.8,19.2,29.89,NW,315,6.5,10.1,73,0.00,,,0.00,WUHU21623XXSP,2013-03-03 15:01:00,
2013-03-03 10:06:00,27.0,19.4,29.89,NNW,337,5.8,6.9,73,0.00,,,0.00,WUHU21623XXSP,2013-03-03 15:06:00,
2013-03-03 10:11:00,27.1,19.6,29.89,NW,315,3.1,5.8,73,0.00,,,0.00,WUHU21623XXSP,2013-03-03 15:11:00,
2013-03-03 10:16:00,27.3,19.9,29.88,NW,315,3.1,5.8,74,0.00,,,0.00,WUHU21623XXSP,2013-03-03 15:16:00,
2013-03-03 10:21:00,27.7,20.4,29.89,NW,315,4.7,4.7,74,0.00,,,0.00,WUHU21623XXSP,2013-03-03 15:21:00,
2013-03-03 10:26:00,28.0,20.5,29.89,NNW,337,1.6,4.7,73,0.00,,,0.00,WUHU21623XXSP,2013-03-03 15:26:00,
2013-03-03 10:31:00,28.2,21.0,29.89,NW,315,4.5,4.5,74,0.00,,,0.00,WUHU21623XXSP,2013-03-03 15:31:00,
2013-03-03 10:36:00,28.8,21.0,29.89,WSW,247,2.7,4.5,73,0.00,,,0.00,WUHU21623XXSP,2013-03-03 15:36:00,
2013-03-03 10:41:00,29.1,21.3,29.89,WNW,292,2.0,4.0,72,0.00,,,0.00,WUHU21623XXSP,2013-03-03 15:41:00,
2013-03-03 10:46:00,29.1,21.2,29.89,NW,315,6.9,6.9,72,0.00,,,0.00,WUHU21623XXSP,2013-03-03 15:46:00,
2013-03-03 10:51:00,29.1,21.2,29.88,NNE,22,8.9,8.9,72,0.00,,,0.00,WUHU21623XXSP,2013-03-03 15:51:00,
2013-03-03 10:56:00,29.3,21.4,29.89,NNW,337,2.5,8.9,72,0.00,,,0.00,WUHU21623XXSP,2013-03-03 15:56:00,
2013-03-03 11:01:00,29.5,21.5,29.88,NW,315,2.5,6.0,72,0.00,,,0.00,WUHU21623XXSP,2013-03-03 16:01:00,
2013-03-03 11:06:00,29.7,21.7,29.88,NW,315,2.9,2.9,72,0.00,,,0.00,WUHU21623XXSP,2013-03-03 16:06:00,
2013-03-03 11:11:00,29.8,21.7,29.88,NW,315,2.2,2.9,71,0.00,,,0.00,WUHU21623XXSP,2013-03-03 16:11:00,
2013-03-03 11:16:00,29.8,21.5,29.89,West,270,1.3,2.2,70,0.00,,,0.00,WUHU21623XXSP,2013-03-03 16:16:00,
2013-03-03 11:21:00,29.5,20.9,29.88,NW,315,4.7,4.7,70,0.00,,,0.00,WUHU21623XXSP,2013-03-03 16:21:00,
2013-03-03 11:26:00,29.1,20.2,29.88,NNW,337,9.8,9.8,69,0.00,,,0.00,WUHU21623XXSP,2013-03-03 16:26:00,
2013-03-03 11:31:00,29.1,20.6,29.88,NW,315,1.6,9.8,70,0.00,,,0.00,WUHU21623XXSP,2013-03-03 16:31:00,
2013-03-03 11:36:00,29.5,20.8,29.88,NW,315,3.4,6.7,70,0.00,,,0.00,WUHU21623XXSP,2013-03-03 16:36:00,
2013-03-03 11:41:00,29.8,20.9,29.89,WNW,292,4.3,5.6,68,0.00,,,0.00,WUHU21623XXSP,2013-03-03 16:41:00,
2013-03-03 11:46:00,29.8,20.4,29.89,NW,315,7.8,7.8,68,0.00,,,0.00,WUHU21623XXSP,2013-03-03 16:46:00,
2013-03-03 11:51:00,29.5,20.2,29.88,NW,315,4.9,7.8,68,0.00,,,0.00,WUHU21623XXSP,2013-03-03 16:51:00,
2013-03-03 11:56:00,29.3,20.0,29.89,NNW,337,5.1,5.1,68,0.00,,,0.00,WUHU21623XXSP,2013-03-03 16:56:00,
2013-03-03 12:01:00,29.1,19.9,29.88,NW,315,4.5,5.1,68,0.00,,,0.00,WUHU21623XXSP,2013-03-03 17:01:00,
2013-03-03 12:06:00,29.1,19.9,29.88,NW,315,8.9,8.9,68,0.00,,,0.00,WUHU21623XXSP,2013-03-03 17:06:00,
2013-03-03 12:11:00,29.1,19.9,29.87,NW,315,8.1,8.9,68,0.00,,,0.00,WUHU21623XXSP,2013-03-03 17:11:00,
2013-03-03 12:16:00,29.1,19.9,29.88,NW,315,5.1,8.9,68,0.00,,,0.00,WUHU21623XXSP,2013-03-03 17:16:00,
2013-03-03 12:21:00,29.1,19.9,29.88,NNW,337,5.6,5.6,68,0.00,,,0.00,WUHU21623XXSP,2013-03-03 17:21:00,
2013-03-03 12:26:00,29.1,20.2,29.88,WNW,292,4.5,5.6,69,0.00,,,0.00,WUHU21623XXSP,2013-03-03 17:26:00,
2013-03-03 12:31:00,29.3,20.4,29.87,WNW,292,4.5,5.4,69,0.00,,,0.00,WUHU21623XXSP,2013-03-03 17:31:00,
2013-03-03 12:36:00,29.3,20.0,29.87,NW,315,6.0,6.0,68,0.00,,,0.00,WUHU21623XXSP,2013-03-03 17:36:00,
2013-03-03 12:41:00,29.3,20.0,29.87,NW,315,5.6,6.0,68,0.00,,,0.00,WUHU21623XXSP,2013-03-03 17:41:00,
2013-03-03 12:46:00,29.3,20.0,29.87,NW,315,3.6,5.6,68,0.00,,,0.00,WUHU21623XXSP,2013-03-03 17:46:00,
2013-03-03 12:51:00,29.3,20.0,29.87,North,0,1.6,3.6,68,0.00,,,0.00,WUHU21623XXSP,2013-03-03 17:51:00,
2013-03-03 12:56:00,29.5,20.6,29.87,NW,315,1.3,5.8,69,0.00,,,0.00,WUHU21623XXSP,2013-03-03 17:56:00,
2013-03-03 13:01:00,29.5,20.6,29.86,NW,315,5.8,5.8,69,0.00,,,0.00,WUHU21623XXSP,2013-03-03 18:01:00,
2013-03-03 13:06:00,29.3,20.0,29.86,NW,315,10.1,10.1,68,0.00,,,0.00,WUHU21623XXSP,2013-03-03 18:06:00,
2013-03-03 13:11:00,29.1,19.9,29.86,NNW,337,6.7,10.1,68,0.00,,,0.00,WUHU21623XXSP,2013-03-03 18:11:00,
2013-03-03 13:16:00,28.9,19.9,29.86,West,270,1.6,6.7,68,0.00,,,0.00,WUHU21623XXSP,2013-03-03 18:16:00,
2013-03-03 13:21:00,28.9,19.7,29.86,WNW,292,6.7,6.7,68,0.00,,,0.00,WUHU21623XXSP,2013-03-03 18:21:00,
2013-03-03 13:26:00,28.9,19.7,29.86,NW,315,1.6,6.7,68,0.00,,,0.00,WUHU21623XXSP,2013-03-03 18:26:00,
2013-03-03 13:31:00,29.1,19.9,29.86,WSW,247,6.0,6.0,68,0.00,,,0.00,WUHU21623XXSP,2013-03-03 18:31:00,
2013-03-03 13:36:00,29.3,20.0,29.86,NW,315,2.9,6.0,68,0.00,,,0.00,WUHU21623XXSP,2013-03-03 18:36:00,
2013-03-03 13:41:00,29.1,19.9,29.86,WSW,247,1.8,6.0,68,0.00,,,0.00,WUHU21623XXSP,2013-03-03 18:41:00,
2013-03-03 13:46:00,29.3,19.9,29.86,WSW,247,1.8,5.4,68,0.00,,,0.00,WUHU21623XXSP,2013-03-03 18:46:00,
2013-03-03 13:51:00,29.3,20.0,29.85,NNW,337,4.3,4.3,68,0.00,,,0.00,WUHU21623XXSP,2013-03-03 18:51:00,
2013-03-03 13:56:00,29.5,20.4,29.85,NW,315,3.1,4.3,68,0.00,,,0.00,WUHU21623XXSP,2013-03-03 18:56:00,
2013-03-03 14:01:00,29.5,19.8,29.86,NW,315,3.1,3.1,68,0.00,,,0.00,WUHU21623XXSP,2013-03-03 19:01:00,
2013-03-03 14:06:00,29.1,19.9,29.85,NW,315,5.1,5.1,68,0.00,,,0.00,WUHU21623XXSP,2013-03-03 19:06:00,
2013-03-03 14:11:00,28.8,19.5,29.86,NW,315,2.7,7.6,68,0.00,,,0.00,WUHU21623XXSP,2013-03-03 19:11:00,
2013-03-03 14:16:00,28.8,19.5,29.86,NW,315,4.0,7.6,68,0.00,,,0.00,WUHU21623XXSP,2013-03-03 19:16:00,
2013-03-03 14:21:00,28.8,19.9,29.86,North,0,3.4,4.0,69,0.00,,,0.00,WUHU21623XXSP,2013-03-03 19:21:00,
2013-03-03 14:26:00,28.8,19.9,29.86,NNW,337,6.7,6.7,69,0.00,,,0.00,WUHU21623XXSP,2013-03-03 19:26:00,
2013-03-03 14:31:00,28.9,20.1,29.86,NNW,337,9.8,9.8,69,0.00,,,0.00,WUHU21623XXSP,2013-03-03 19:31:00,
2013-03-03 14:36:00,28.9,20.1,29.86,NW,315,2.5,9.8,69,0.00,,,0.00,WUHU21623XXSP,2013-03-03 19:36:00,
2013-03-03 14:41:00,28.9,20.1,29.86,NNW,337,5.4,9.8,69,0.00,,,0.00,WUHU21623XXSP,2013-03-03 19:41:00,
2013-03-03 14:46:00,28.6,20.1,29.86,NW,315,7.4,7.4,69,0.00,,,0.00,WUHU21623XXSP,2013-03-03 19:46:00,
2013-03-03 14:51:00,28.8,19.9,29.86,WNW,292,0.0,7.4,69,0.00,,,0.00,WUHU21623XXSP,2013-03-03 19:51:00,
2013-03-03 14:56:00,28.9,20.4,29.86,NW,315,1.1,4.5,70,0.00,,,0.00,WUHU21623XXSP,2013-03-03 19:56:00,
2013-03-03 15:01:00,29.1,20.6,29.85,NW,315,1.1,4.5,70,0.00,,,0.00,WUHU21623XXSP,2013-03-03 20:01:00,
2013-03-03 15:06:00,29.5,20.6,29.86,NW,315,5.4,5.4,69,0.00,,,0.00,WUHU21623XXSP,2013-03-03 20:06:00,
2013-03-03 15:11:00,29.5,20.6,29.86,NNW,337,2.9,5.4,69,0.00,,,0.00,WUHU21623XXSP,2013-03-03 20:11:00,
2013-03-03 15:16:00,29.5,20.6,29.86,WSW,247,3.1,5.4,69,0.00,,,0.00,WUHU21623XXSP,2013-03-03 20:16:00,
2013-03-03 15:21:00,29.1,20.2,29.86,NE,45,2.0,3.1,69,0.00,,,0.00,WUHU21623XXSP,2013-03-03 20:21:00,
2013-03-03 15:26:00,29.1,20.2,29.86,WNW,292,2.2,3.6,69,0.00,,,0.00,WUHU21623XXSP,2013-03-03 20:26:00,
2013-03-03 15:31:00,28.9,20.1,29.86,WNW,292,1.3,3.6,69,0.00,,,0.00,WUHU21623XXSP,2013-03-03 20:31:00,
2013-03-03 15:36:00,28.9,20.4,29.86,NW,315,2.7,3.6,70,0.00,,,0.00,WUHU21623XXSP,2013-03-03 20:36:00,
2013-03-03 15:41:00,28.9,20.4,29.86,WNW,292,2.0,2.7,70,0.00,,,0.00,WUHU21623XXSP,2013-03-03 20:41:00,
2013-03-03 15:46:00,28.8,20.4,29.86,WNW,292,2.0,2.0,70,0.00,,,0.00,WUHU21623XXSP,2013-03-03 20:46:00,
2013-03-03 15:51:00,28.9,20.3,29.86,NW,315,2.9,2.9,70,0.00,,,0.00,WUHU21623XXSP,2013-03-03 20:51:00,
2013-03-03 15:56:00,29.1,20.6,29.86,NNW,337,2.7,3.4,70,0.00,,,0.00,WUHU21623XXSP,2013-03-03 20:56:00,
2013-03-03 16:01:00,29.3,20.4,29.86,NW,315,2.2,3.4,69,0.00,,,0.00,WUHU21623XXSP,2013-03-03 21:01:00,
2013-03-03 16:06:00,29.3,20.4,29.87,NW,315,3.6,3.6,69,0.00,,,0.00,WUHU21623XXSP,2013-03-03 21:06:00,
2013-03-03 16:11:00,29.1,20.2,29.86,NW,315,4.0,4.0,69,0.00,,,0.00,WUHU21623XXSP,2013-03-03 21:11:00,
2013-03-03 16:16:00,29.1,20.2,29.87,NW,315,1.6,4.0,69,0.00,,,0.00,WUHU21623XXSP,2013-03-03 21:16:00,
2013-03-03 16:21:00,29.1,20.6,29.87,WNW,292,0.0,2.0,70,0.00,,,0.00,WUHU21623XXSP,2013-03-03 21:21:00,
2013-03-03 16:26:00,29.1,20.6,29.87,WNW,292,0.9,2.9,70,0.00,,,0.00,WUHU21623XXSP,2013-03-03 21:26:00,
2013-03-03 16:31:00,28.9,20.6,29.87,WSW,247,7.2,7.2,70,0.00,,,0.00,WUHU21623XXSP,2013-03-03 21:31:00,
2013-03-03 16:36:00,28.8,20.3,29.87,North,0,5.4,7.2,70,0.00,,,0.00,WUHU21623XXSP,2013-03-03 21:36:00,
2013-03-03 16:41:00,28.6,20.1,29.87,NW,315,1.6,5.4,70,0.00,,,0.00,WUHU21623XXSP,2013-03-03 21:41:00,
2013-03-03 16:46:00,28.6,20.1,29.87,NW,315,3.4,5.4,70,0.00,,,0.00,WUHU21623XXSP,2013-03-03 21:46:00,
2013-03-03 16:51:00,28.6,20.1,29.87,NW,315,2.7,3.8,70,0.00,,,0.00,WUHU21623XXSP,2013-03-03 21:51:00,
2013-03-03 16:56:00,28.4,20.4,29.88,NNW,337,6.7,6.7,71,0.00,,,0.00,WUHU21623XXSP,2013-03-03 21:56:00,
2013-03-03 17:01:00,28.6,20.4,29.87,WSW,247,1.6,6.7,71,0.00,,,0.00,WUHU21623XXSP,2013-03-03 22:01:00,
2013-03-03 17:06:00,28.2,20.1,29.88,NW,315,2.9,6.7,71,0.00,,,0.00,WUHU21623XXSP,2013-03-03 22:06:00,
2013-03-03 17:11:00,28.4,20.6,29.88,NW,315,4.0,4.0,72,0.00,,,0.00,WUHU21623XXSP,2013-03-03 22:11:00,
2013-03-03 17:16:00,28.2,20.4,29.88,NW,315,2.7,4.0,72,0.00,,,0.00,WUHU21623XXSP,2013-03-03 22:16:00,
2013-03-03 17:21:00,28.0,20.2,29.88,WNW,292,4.0,4.0,72,0.00,,,0.00,WUHU21623XXSP,2013-03-03 22:21:00,
2013-03-03 17:26:00,27.7,20.1,29.88,WNW,292,8.5,8.5,73,0.00,,,0.00,WUHU21623XXSP,2013-03-03 22:26:00,
2013-03-03 17:31:00,27.3,20.0,29.88,WNW,292,2.5,8.5,74,0.00,,,0.00,WUHU21623XXSP,2013-03-03 22:31:00,
2013-03-03 17:36:00,27.3,20.1,29.88,NW,315,2.0,2.5,74,0.00,,,0.00,WUHU21623XXSP,2013-03-03 22:36:00,
2013-03-03 17:41:00,27.1,20.2,29.89,NW,315,2.0,2.0,75,0.00,,,0.00,WUHU21623XXSP,2013-03-03 22:41:00,
2013-03-03 17:46:00,27.1,20.2,29.88,NW,315,3.4,3.4,75,0.00,,,0.00,WUHU21623XXSP,2013-03-03 22:46:00,
2013-03-03 17:51:00,27.0,20.3,29.89,NW,315,2.7,3.4,76,0.00,,,0.00,WUHU21623XXSP,2013-03-03 22:51:00,
2013-03-03 17:56:00,27.0,20.3,29.89,WNW,292,0.0,2.7,76,0.00,,,0.00,WUHU21623XXSP,2013-03-03 22:56:00,
2013-03-03 18:01:00,27.1,20.5,29.89,WNW,292,0.0,0.0,76,0.00,,,0.00,WUHU21623XXSP,2013-03-03 23:01:00,
2013-03-03 18:06:00,27.0,20.3,29.89,SSW,202,4.3,4.3,76,0.00,,,0.00,WUHU21623XXSP,2013-03-03 23:06:00,
2013-03-03 18:11:00,27.0,20.3,29.89,NW,315,0.9,4.3,76,0.00,,,0.00,WUHU21623XXSP,2013-03-03 23:11:00,
2013-03-03 18:16:00,26.8,20.2,29.89,WNW,292,2.2,2.2,76,0.00,,,0.00,WUHU21623XXSP,2013-03-03 23:16:00,
2013-03-03 18:21:00,26.8,20.2,29.89,WSW,247,2.5,2.5,76,0.00,,,0.00,WUHU21623XXSP,2013-03-03 23:21:00,
2013-03-03 18:26:00,26.8,20.2,29.90,WNW,292,0.0,3.1,76,0.00,,,0.00,WUHU21623XXSP,2013-03-03 23:26:00,
2013-03-03 18:31:00,26.8,20.2,29.89,NW,315,2.2,3.1,76,0.00,,,0.00,WUHU21623XXSP,2013-03-03 23:31:00,
2013-03-03 18:36:00,26.8,20.2,29.90,NW,315,2.2,2.2,76,0.00,,,0.00,WUHU21623XXSP,2013-03-03 23:36:00,
2013-03-03 18:41:00,26.6,20.2,29.89,NW,315,2.7,2.9,77,0.00,,,0.00,WUHU21623XXSP,2013-03-03 23:41:00,
2013-03-03 18:46:00,26.4,20.1,29.91,NW,315,6.7,6.7,77,0.00,,,0.00,WUHU21623XXSP,2013-03-03 23:46:00,
2013-03-03 18:51:00,26.4,20.1,29.90,NW,315,4.0,6.7,77,0.00,,,0.00,WUHU21623XXSP,2013-03-03 23:51:00,
2013-03-03 18:56:00,25.9,20.2,29.91,NW,315,8.9,8.9,79,0.00,,,0.00,WUHU21623XXSP,2013-03-03 23:56:00,
2013-03-03 19:01:00,25.5,19.6,29.91,NW,315,4.3,8.9,78,0.00,,,0.00,WUHU21623XXSP,2013-03-04 00:01:00,
2013-03-03 19:06:00,25.5,19.6,29.91,NW,315,0.0,6.3,78,0.00,,,0.00,WUHU21623XXSP,2013-03-04 00:06:00,
2013-03-03 19:11:00,25.3,19.7,29.91,NW,315,2.0,4.3,79,0.00,,,0.00,WUHU21623XXSP,2013-03-04 00:11:00,
2013-03-03 19:16:00,25.3,19.7,29.91,NW,315,2.2,4.3,79,0.00,,,0.00,WUHU21623XXSP,2013-03-04 00:16:00,
2013-03-03 19:21:00,25.3,19.7,29.91,NW,315,3.6,4.0,79,0.00,,,0.00,WUHU21623XXSP,2013-03-04 00:21:00,
2013-03-03 19:26:00,25.3,19.7,29.92,NNW,337,2.5,3.6,79,0.00,,,0.00,WUHU21623XXSP,2013-03-04 00:26:00,
2013-03-03 19:31:00,25.3,19.7,29.91,NW,315,2.0,3.6,79,0.00,,,0.00,WUHU21623XXSP,2013-03-04 00:31:00,
2013-03-03 19:36:00,25.3,19.7,29.92,WNW,292,1.1,5.1,79,0.00,,,0.00,WUHU21623XXSP,2013-03-04 00:36:00,
2013-03-03 19:41:00,25.3,20.1,29.92,NW,315,2.5,5.1,80,0.00,,,0.00,WUHU21623XXSP,2013-03-04 00:41:00,
2013-03-03 19:46:00,25.3,20.1,29.92,NW,315,5.4,5.4,80,0.00,,,0.00,WUHU21623XXSP,2013-03-04 00:46:00,
2013-03-03 19:51:00,25.3,20.1,29.92,NW,315,0.0,5.4,80,0.00,,,0.00,WUHU21623XXSP,2013-03-04 00:51:00,
2013-03-03 19:56:00,25.5,20.2,29.92,NW,315,1.8,4.0,80,0.00,,,0.00,WUHU21623XXSP,2013-03-04 00:56:00,
2013-03-03 20:01:00,25.5,20.2,29.93,NW,315,4.0,4.5,80,0.00,,,0.00,WUHU21623XXSP,2013-03-04 01:01:00,
2013-03-03 20:06:00,25.3,20.1,29.92,NW,315,2.0,4.5,80,0.00,,,0.00,WUHU21623XXSP,2013-03-04 01:06:00,
2013-03-03 20:11:00,25.5,20.2,29.93,NW,315,4.0,4.0,80,0.00,,,0.00,WUHU21623XXSP,2013-03-04 01:11:00,
2013-03-03 20:16:00,25.3,20.2,29.93,NW,315,0.0,4.0,80,0.00,,,0.00,WUHU21623XXSP,2013-03-04 01:16:00,
2013-03-03 20:21:00,25.3,20.1,29.92,NW,315,5.1,5.1,80,0.00,,,0.00,WUHU21623XXSP,2013-03-04 01:21:00,
2013-03-03 20:26:00,25.3,20.1,29.93,NW,315,5.1,5.1,80,0.00,,,0.00,WUHU21623XXSP,2013-03-04 01:26:00,
2013-03-03 20:31:00,25.3,20.1,29.93,NNW,337,5.4,5.4,80,0.00,,,0.00,WUHU21623XXSP,2013-03-04 01:31:00,
2013-03-03 20:36:00,25.3,20.1,29.93,West,270,1.8,5.4,80,0.00,,,0.00,WUHU21623XXSP,2013-03-04 01:36:00,
2013-03-03 20:41:00,25.2,19.9,29.93,NW,315,3.8,4.3,79,0.00,,,0.00,WUHU21623XXSP,2013-03-04 01:41:00,
2013-03-03 20:46:00,25.2,19.6,29.93,NW,315,4.3,4.3,79,0.00,,,0.00,WUHU21623XXSP,2013-03-04 01:46:00,
2013-03-03 20:51:00,25.0,19.4,29.93,NW,315,3.6,4.3,79,0.00,,,0.00,WUHU21623XXSP,2013-03-04 01:51:00,
2013-03-03 20:56:00,25.0,19.4,29.93,West,270,5.4,5.4,79,0.00,,,0.00,WUHU21623XXSP,2013-03-04 01:56:00,
2013-03-03 21:01:00,25.0,19.4,29.93,West,270,5.4,5.4,80,0.00,,,0.00,WUHU21623XXSP,2013-03-04 02:01:00,
2013-03-03 21:06:00,24.6,19.7,29.93,NW,315,0.0,5.4,80,0.00,,,0.00,WUHU21623XXSP,2013-03-04 02:06:00,
2013-03-03 21:11:00,24.6,19.4,29.94,NW,315,5.1,7.4,80,0.00,,,0.00,WUHU21623XXSP,2013-03-04 02:11:00,
2013-03-03 21:16:00,24.4,19.2,29.94,WNW,292,2.5,7.4,80,0.00,,,0.00,WUHU21623XXSP,2013-03-04 02:16:00,
2013-03-03 21:21:00,24.4,18.9,29.94,NNW,337,2.5,2.5,79,0.00,,,0.00,WUHU21623XXSP,2013-03-04 02:21:00,
2013-03-03 21:26:00,24.4,18.9,29.94,NNW,337,2.9,2.9,79,0.00,,,0.00,WUHU21623XXSP,2013-03-04 02:26:00,
2013-03-03 21:31:00,24.4,18.9,29.94,NW,315,2.5,2.9,79,0.00,,,0.00,WUHU21623XXSP,2013-03-04 02:31:00,
2013-03-03 21:36:00,24.4,18.9,29.94,NW,315,4.5,4.5,79,0.00,,,0.00,WUHU21623XXSP,2013-03-04 02:36:00,
2013-03-03 21:41:00,24.4,18.9,29.94,NW,315,2.2,4.5,79,0.00,,,0.00,WUHU21623XXSP,2013-03-04 02:41:00,
2013-03-03 21:46:00,24.4,18.9,29.95,NW,315,5.4,5.4,79,0.00,,,0.00,WUHU21623XXSP,2013-03-04 02:46:00,
2013-03-03 21:51:00,24.4,18.9,29.94,NW,315,1.1,5.4,79,0.00,,,0.00,WUHU21623XXSP,2013-03-04 02:51:00,
2013-03-03 21:56:00,24.4,18.9,29.94,West,270,1.6,2.0,79,0.00,,,0.00,WUHU21623XXSP,2013-03-04 02:56:00,
2013-03-03 22:01:00,24.4,18.9,29.95,West,270,1.6,2.0,79,0.00,,,0.00,WUHU21623XXSP,2013-03-04 03:01:00,
2013-03-03 22:06:00,24.4,18.9,29.94,NW,315,1.6,1.6,79,0.00,,,0.00,WUHU21623XXSP,2013-03-04 03:06:00,
2013-03-03 22:11:00,24.4,18.9,29.95,WNW,292,1.3,1.6,79,0.00,,,0.00,WUHU21623XXSP,2013-03-04 03:11:00,
2013-03-03 22:16:00,24.4,18.6,29.94,NW,315,0.9,3.4,78,0.00,,,0.00,WUHU21623XXSP,2013-03-04 03:16:00,
2013-03-03 22:21:00,24.4,18.6,29.94,West,270,0.0,3.4,78,0.00,,,0.00,WUHU21623XXSP,2013-03-04 03:21:00,
2013-03-03 22:26:00,24.4,18.6,29.94,NW,315,2.2,3.1,78,0.00,,,0.00,WUHU21623XXSP,2013-03-04 03:26:00,
2013-03-03 22:31:00,24.4,18.6,29.94,NW,315,1.6,2.2,78,0.00,,,0.00,WUHU21623XXSP,2013-03-04 03:31:00,
2013-03-03 22:36:00,24.4,18.2,29.94,NW,315,0.0,2.2,77,0.00,,,0.00,WUHU21623XXSP,2013-03-04 03:36:00,
2013-03-03 22:41:00,24.4,18.4,29.94,NW,315,1.3,1.6,76,0.00,,,0.00,WUHU21623XXSP,2013-03-04 03:41:00,
2013-03-03 22:46:00,24.6,18.1,29.94,NW,315,1.8,2.9,76,0.00,,,0.00,WUHU21623XXSP,2013-03-04 03:46:00,
2013-03-03 22:51:00,24.4,17.9,29.94,WSW,247,0.0,2.9,76,0.00,,,0.00,WUHU21623XXSP,2013-03-04 03:51:00,
2013-03-03 22:56:00,24.6,18.1,29.94,North,0,1.3,3.1,76,0.00,,,0.00,WUHU21623XXSP,2013-03-04 03:56:00,
2013-03-03 23:01:00,24.6,18.1,29.94,NW,315,3.4,3.4,76,0.00,,,0.00,WUHU21623XXSP,2013-03-04 04:01:00,
2013-03-03 23:06:00,24.6,17.9,29.94,NW,315,3.4,3.4,76,0.00,,,0.00,WUHU21623XXSP,2013-03-04 04:06:00,
2013-03-03 23:11:00,24.6,18.1,29.94,NW,315,2.5,3.6,76,0.00,,,0.00,WUHU21623XXSP,2013-03-04 04:11:00,
2013-03-03 23:16:00,24.6,18.1,29.94,NW,315,1.3,3.6,76,0.00,,,0.00,WUHU21623XXSP,2013-03-04 04:16:00,
2013-03-03 23:21:00,24.6,18.1,29.94,SW,225,3.6,3.6,76,0.00,,,0.00,WUHU21623XXSP,2013-03-04 04:21:00,
2013-03-03 23:26:00,24.4,17.9,29.94,NW,315,3.8,3.8,76,0.00,,,0.00,WUHU21623XXSP,2013-03-04 04:26:00,
2013-03-03 23:31:00,24.4,17.9,29.94,NW,315,2.7,3.8,75,0.00,,,0.00,WUHU21623XXSP,2013-03-04 04:31:00,
2013-03-03 23:36:00,24.4,17.6,29.94,NW,315,1.8,2.7,75,0.00,,,0.00,WUHU21623XXSP,2013-03-04 04:36:00,
2013-03-03 23:41:00,24.4,17.6,29.94,NW,315,1.8,3.1,75,0.00,,,0.00,WUHU21623XXSP,2013-03-04 04:41:00,
2013-03-03 23:46:00,24.4,17.6,29.94,NW,315,6.3,6.3,75,0.00,,,0.00,WUHU21623XXSP,2013-03-04 04:46:00,
2013-03-03 23:51:00,24.3,17.6,29.94,NW,315,6.3,6.3,75,0.00,,,0.00,WUHU21623XXSP,2013-03-04 04:51:00,
2013-03-03 23:56:00,24.1,17.3,29.94,NW,315,2.7,6.3,75,0.00,,,0.00,WUHU21623XXSP,2013-03-04 04:56:00,